createdAt,value
2023-02-14T00:01:28.518Z,360
2023-02-14T00:05:31.599Z,360
2023-02-14T00:07:32.826Z,89
2023-02-14T00:09:34.711Z,88
2023-02-14T00:11:36.278Z,88
2023-02-14T00:15:39.482Z,88
2023-02-14T00:17:41.363Z,360
2023-02-14T00:19:42.499Z,360
2023-02-14T00:21:43.942Z,101
2023-02-14T00:23:45.311Z,360
2023-02-14T00:25:47.204Z,360
2023-02-14T00:27:49.033Z,360
2023-02-14T00:29:50.236Z,360
2023-02-14T00:31:51.352Z,360
2023-02-14T00:33:53.060Z,360
2023-02-14T00:35:54.969Z,360
2023-02-14T00:37:56.916Z,360
2023-02-14T00:39:58.061Z,360
2023-02-14T00:41:59.793Z,360
2023-02-14T00:44:01.341Z,360
2023-02-14T00:48:04.304Z,360
2023-02-14T00:50:06.017Z,360
2023-02-14T00:54:08.938Z,360
2023-02-14T00:58:12.419Z,360
2023-02-14T01:00:13.929Z,360
2023-02-14T01:02:15.269Z,360
2023-02-14T01:04:16.341Z,360
2023-02-14T01:06:17.885Z,360
2023-02-14T01:08:19.524Z,360
2023-02-14T01:10:20.631Z,360
2023-02-14T01:12:21.973Z,360
2023-02-14T01:14:23.743Z,360
2023-02-14T01:16:25.363Z,360
2023-02-14T01:18:26.468Z,360
2023-02-14T01:20:27.772Z,360
2023-02-14T01:22:29.607Z,103
2023-02-14T01:24:31.223Z,103
2023-02-14T01:26:32.564Z,103
2023-02-14T01:30:35.824Z,103
2023-02-14T01:32:37.602Z,360
2023-02-14T01:36:40.481Z,360
2023-02-14T01:40:43.138Z,360
2023-02-14T01:42:44.388Z,360
2023-02-14T01:45:30.184Z,360
2023-02-14T01:47:31.485Z,360
2023-02-14T01:49:33.303Z,360
2023-02-14T01:51:35.096Z,154
2023-02-14T01:53:37.062Z,154
2023-02-14T01:55:38.442Z,154
2023-02-14T01:57:40.357Z,120
2023-02-14T01:59:42.177Z,144
2023-02-14T02:01:43.690Z,157
2023-02-14T02:03:44.758Z,155
2023-02-14T02:07:47.836Z,155
2023-02-14T02:09:48.871Z,155
2023-02-14T02:11:50.057Z,155
2023-02-14T02:13:51.670Z,360
2023-02-14T02:17:54.402Z,360
2023-02-14T02:19:56.257Z,360
2023-02-14T02:21:57.674Z,360
2023-02-14T02:23:58.738Z,360
2023-02-14T02:28:02.268Z,152
2023-02-14T02:30:04.172Z,145
2023-02-14T02:32:06.050Z,145
2023-02-14T02:34:07.215Z,145
2023-02-14T02:38:11.086Z,360
2023-02-14T02:40:12.485Z,360
2023-02-14T02:42:14.126Z,360
2023-02-14T02:44:16.055Z,85
2023-02-14T02:46:17.261Z,117
2023-02-14T02:50:20.721Z,360
2023-02-14T02:52:22.091Z,360
2023-02-14T02:54:23.179Z,360
2023-02-14T02:56:25.071Z,360
2023-02-14T03:00:28.396Z,360
2023-02-14T03:02:29.689Z,360
2023-02-14T03:04:30.969Z,102
2023-02-14T03:06:32.797Z,360
2023-02-14T03:10:36.430Z,118
2023-02-14T03:12:38.419Z,360
2023-02-14T03:14:39.810Z,360
2023-02-14T03:16:41.093Z,360
2023-02-14T03:22:45.210Z,360
2023-02-14T03:24:46.786Z,360
2023-02-14T03:26:48.688Z,360
2023-02-14T03:28:50.113Z,360
2023-02-14T03:32:52.842Z,360
2023-02-14T03:34:54.447Z,360
2023-02-14T03:36:56.326Z,360
2023-02-14T03:38:57.986Z,360
2023-02-14T03:43:00.718Z,360
2023-02-14T03:45:02.490Z,120
2023-02-14T03:49:05.726Z,120
2023-02-14T03:53:08.753Z,120
2023-02-14T03:55:10.462Z,360
2023-02-14T03:57:12.037Z,360
2023-02-14T03:59:13.197Z,360
2023-02-14T04:03:16.017Z,360
2023-02-14T04:05:17.622Z,360
2023-02-14T04:09:20.850Z,360
2023-02-14T04:11:24.430Z,360
2023-02-14T04:15:25.191Z,360
2023-02-14T04:19:28.225Z,360
2023-02-14T04:21:29.549Z,360
2023-02-14T04:23:30.980Z,360
2023-02-14T04:25:32.833Z,360
2023-02-14T04:27:33.865Z,360
2023-02-14T04:31:37.452Z,360
2023-02-14T04:35:40.133Z,360
2023-02-14T04:37:41.473Z,360
2023-02-14T04:41:45.392Z,360
2023-02-14T04:43:55.090Z,360
2023-02-14T04:45:48.638Z,360
2023-02-14T04:47:50.270Z,360
2023-02-14T04:51:52.848Z,360
2023-02-14T04:53:54.398Z,360
2023-02-14T04:55:56.285Z,360
2023-02-14T04:57:58.157Z,360
2023-02-14T05:04:03.129Z,360
2023-02-14T05:08:06.049Z,360
2023-02-14T05:10:07.094Z,360
2023-02-14T05:14:09.784Z,360
2023-02-14T05:18:12.866Z,360
2023-02-14T05:20:14.234Z,360
2023-02-14T05:24:16.832Z,360
2023-02-14T05:26:18.762Z,360
2023-02-14T05:28:20.053Z,360
2023-02-14T05:30:21.624Z,360
2023-02-14T05:32:22.620Z,360
2023-02-14T05:34:24.126Z,360
2023-02-14T05:36:25.336Z,360
2023-02-14T05:38:26.474Z,360
2023-02-14T05:40:28.251Z,360
2023-02-14T05:42:29.967Z,360
2023-02-14T05:46:32.987Z,360
2023-02-14T05:48:34.229Z,360
2023-02-14T05:50:35.834Z,360
2023-02-14T05:52:37.356Z,360
2023-02-14T05:56:40.987Z,360
2023-02-14T05:58:42.929Z,360
2023-02-14T06:02:45.309Z,360
2023-02-14T06:06:48.868Z,130
2023-02-14T06:08:50.074Z,130
2023-02-14T06:10:51.530Z,130
2023-02-14T06:12:53.194Z,130
2023-02-14T06:14:55.066Z,130
2023-02-14T06:16:56.321Z,130
2023-02-14T06:18:57.497Z,130
2023-02-14T06:20:58.920Z,130
2023-02-14T06:22:59.969Z,130
2023-02-14T06:25:01.022Z,130
2023-02-14T06:27:02.809Z,130
2023-02-14T06:29:04.642Z,130
2023-02-14T06:31:05.778Z,130
2023-02-14T06:33:07.073Z,360
2023-02-14T06:35:09.083Z,360
2023-02-14T06:39:12.066Z,88
2023-02-14T06:41:13.866Z,360
2023-02-14T06:43:15.478Z,360
2023-02-14T06:45:17.334Z,360
2023-02-14T06:49:20.450Z,112
2023-02-14T06:51:22.394Z,131
2023-02-14T06:53:23.954Z,360
2023-02-14T06:55:25.655Z,360
2023-02-14T06:59:28.265Z,360
2023-02-14T07:01:29.777Z,115
2023-02-14T07:03:31.290Z,112
2023-02-14T07:05:32.874Z,112
2023-02-14T07:09:35.698Z,90
2023-02-14T07:11:37.288Z,90
2023-02-14T07:13:38.999Z,360
2023-02-14T07:15:40.926Z,360
2023-02-14T07:17:42.916Z,104
2023-02-14T07:21:46.419Z,360
2023-02-14T07:23:48.178Z,360
2023-02-14T07:25:49.531Z,360
2023-02-14T07:27:50.676Z,360
2023-02-14T07:31:53.638Z,119
2023-02-14T07:33:55.064Z,119
2023-02-14T07:35:56.466Z,119
2023-02-14T07:37:57.597Z,119
2023-02-14T07:42:00.824Z,137
2023-02-14T07:44:02.568Z,137
2023-02-14T07:46:03.749Z,137
2023-02-14T07:48:04.997Z,137
2023-02-14T07:54:08.910Z,86
2023-02-14T07:56:10.076Z,86
2023-02-14T07:58:12.080Z,360
2023-02-14T08:00:13.331Z,360
2023-02-14T08:04:16.427Z,360
2023-02-14T08:06:17.601Z,360
2023-02-14T08:08:19.185Z,360
2023-02-14T08:10:20.597Z,360
2023-02-14T08:14:23.367Z,36
2023-02-14T08:16:25.276Z,36
2023-02-14T08:20:28.838Z,36
2023-02-14T08:24:31.787Z,36
2023-02-14T08:26:33.039Z,36
2023-02-14T08:29:18.499Z,36
2023-02-14T08:31:26.889Z,36
2023-02-14T08:35:25.945Z,36
2023-02-14T08:37:25.441Z,36
2023-02-14T08:39:26.952Z,36
2023-02-14T08:41:28.388Z,36
2023-02-14T08:43:30.123Z,36
2023-02-14T08:45:31.275Z,36
2023-02-14T08:47:32.298Z,36
2023-02-14T08:51:35.273Z,36
2023-02-14T08:53:36.727Z,36
2023-02-14T08:57:40.370Z,164
2023-02-14T09:01:43.344Z,166
2023-02-14T09:03:45.090Z,166
2023-02-14T09:07:47.403Z,164
2023-02-14T09:11:50.400Z,164
2023-02-14T09:13:52.262Z,164
2023-02-14T09:17:54.935Z,164
2023-02-14T09:19:56.136Z,164
2023-02-14T09:21:57.607Z,164
2023-02-14T09:23:59.323Z,164
2023-02-14T09:28:02.917Z,166
2023-02-14T09:30:04.839Z,167
2023-02-14T09:32:06.179Z,165
2023-02-14T09:34:07.251Z,164
2023-02-14T09:36:08.390Z,164
2023-02-14T09:40:11.658Z,164
2023-02-14T09:44:15.144Z,165
2023-02-14T09:46:16.890Z,165
2023-02-14T09:50:19.118Z,165
2023-02-14T09:54:22.781Z,165
2023-02-14T09:56:24.219Z,165
2023-02-14T09:58:35.200Z,165
2023-02-14T10:00:27.304Z,117
2023-02-14T10:02:28.958Z,360
2023-02-14T10:04:29.887Z,159
2023-02-14T10:06:31.641Z,159
2023-02-14T10:08:33.142Z,159
2023-02-14T10:10:34.266Z,158
2023-02-14T10:12:35.278Z,158
2023-02-14T10:14:36.319Z,158
2023-02-14T10:16:38.153Z,158
2023-02-14T10:18:39.280Z,158
2023-02-14T10:22:42.581Z,158
2023-02-14T10:24:44.124Z,158
2023-02-14T10:28:46.876Z,158
2023-02-14T10:32:50.072Z,159
2023-02-14T10:34:51.986Z,159
2023-02-14T10:36:53.580Z,159
2023-02-14T10:38:54.772Z,159
2023-02-14T10:40:56.293Z,159
2023-02-14T10:42:58.101Z,159
2023-02-14T10:44:59.800Z,159
2023-02-14T10:47:01.113Z,159
2023-02-14T10:49:02.602Z,159
2023-02-14T10:51:04.422Z,360
2023-02-14T10:53:06.021Z,360
2023-02-14T10:55:06.990Z,360
2023-02-14T10:57:08.233Z,104
2023-02-14T10:59:10.077Z,104
2023-02-14T11:01:11.137Z,104
2023-02-14T11:05:14.209Z,104
2023-02-14T11:07:15.204Z,102
2023-02-14T11:09:16.729Z,105
2023-02-14T11:11:17.890Z,105
2023-02-14T11:15:20.450Z,103
2023-02-14T11:17:22.417Z,103
2023-02-14T11:19:23.803Z,103
2023-02-14T11:21:25.095Z,103
2023-02-14T11:25:27.923Z,360
2023-02-14T11:27:29.462Z,360
2023-02-14T11:29:30.523Z,360
2023-02-14T11:31:31.578Z,360
2023-02-14T11:35:33.461Z,360
2023-02-14T11:37:35.029Z,116
2023-02-14T11:41:37.745Z,100
2023-02-14T11:43:39.474Z,100
2023-02-14T11:47:42.119Z,100
2023-02-14T11:51:45.177Z,100
2023-02-14T11:53:46.502Z,100
2023-02-14T11:57:49.961Z,100
2023-02-14T11:59:51.333Z,100
2023-02-14T12:03:54.586Z,100
2023-02-14T12:05:55.535Z,100
2023-02-14T12:07:57.237Z,100
2023-02-14T12:10:00.172Z,100
2023-02-14T12:14:00.647Z,314
2023-02-14T12:16:02.109Z,314
2023-02-14T12:18:03.990Z,317
2023-02-14T12:20:05.192Z,317
2023-02-14T12:22:06.644Z,82
2023-02-14T12:24:07.794Z,82
2023-02-14T12:26:09.639Z,82
2023-02-14T12:28:11.607Z,82
2023-02-14T12:30:13.059Z,360
2023-02-14T12:32:14.308Z,360
2023-02-14T12:34:24.993Z,360
2023-02-14T12:36:17.671Z,360
2023-02-14T12:40:19.947Z,360
2023-02-14T12:46:24.351Z,360
2023-02-14T12:48:26.001Z,89
2023-02-14T12:50:27.867Z,88
2023-02-14T12:52:28.868Z,87
2023-02-14T12:56:31.985Z,360
2023-02-14T12:58:33.225Z,360
2023-02-14T13:00:35.013Z,83
2023-02-14T13:02:36.285Z,62
2023-02-14T13:06:39.169Z,25
2023-02-14T13:08:40.496Z,28
2023-02-14T13:10:42.052Z,25
2023-02-14T13:12:43.278Z,25
2023-02-14T13:14:45.113Z,25
2023-02-14T13:16:46.117Z,25
2023-02-14T13:18:47.275Z,360
2023-02-14T13:20:49.132Z,88
2023-02-14T13:22:50.142Z,88
2023-02-14T13:24:51.447Z,88
2023-02-14T13:27:00.383Z,87
2023-02-14T13:28:54.228Z,89
2023-02-14T13:30:56.170Z,89
2023-02-14T13:32:57.983Z,330
2023-02-14T13:34:59.885Z,330
2023-02-14T13:39:03.000Z,360
2023-02-14T13:41:04.250Z,87
2023-02-14T13:43:05.754Z,13
2023-02-14T13:45:07.431Z,13
2023-02-14T13:49:10.208Z,50
2023-02-14T13:51:11.417Z,360
2023-02-14T13:53:12.448Z,360
2023-02-14T13:55:13.850Z,88
2023-02-14T14:01:17.896Z,98
2023-02-14T14:03:19.600Z,98
2023-02-14T14:05:21.322Z,360
2023-02-14T14:07:22.315Z,360
2023-02-14T14:11:24.867Z,22
2023-02-14T14:13:26.866Z,22
2023-02-14T14:15:28.019Z,25
2023-02-14T14:17:28.954Z,22
2023-02-14T14:21:31.659Z,111
2023-02-14T14:23:32.926Z,111
2023-02-14T14:27:35.545Z,317
2023-02-14T14:31:38.757Z,317
2023-02-14T14:33:40.390Z,317
2023-02-14T14:37:42.816Z,63
2023-02-14T14:41:46.389Z,97
2023-02-14T14:43:47.665Z,360
2023-02-14T14:47:51.643Z,96
2023-02-14T14:49:52.621Z,103
2023-02-14T14:51:53.815Z,360
2023-02-14T14:53:55.572Z,104
2023-02-14T15:00:00.338Z,104
2023-02-14T15:02:01.497Z,103
2023-02-14T15:04:03.082Z,103
2023-02-14T15:06:04.548Z,103
2023-02-14T15:10:07.817Z,103
2023-02-14T15:14:10.328Z,103
2023-02-14T15:14:54.213Z,103
2023-02-14T15:16:56.062Z,103
2023-02-14T15:18:56.964Z,103
2023-02-14T15:20:58.955Z,104
2023-02-14T15:23:00.101Z,104
2023-02-14T15:25:01.465Z,103
2023-02-14T15:27:02.663Z,103
2023-02-14T15:29:04.192Z,104
2023-02-14T15:31:06.055Z,323
2023-02-14T15:33:07.602Z,321
2023-02-14T15:35:09.273Z,322
2023-02-14T15:37:10.302Z,322
2023-02-14T15:39:12.099Z,322
2023-02-14T15:41:13.798Z,322
2023-02-14T15:43:15.097Z,322
2023-02-14T15:47:17.371Z,322
2023-02-14T15:49:18.932Z,322
2023-02-14T15:51:20.464Z,360
2023-02-14T15:53:21.820Z,360
2023-02-14T15:57:24.170Z,360
2023-02-14T15:59:25.966Z,61
2023-02-14T16:01:27.376Z,67
2023-02-14T16:03:29.064Z,360
2023-02-14T16:07:32.229Z,360
2023-02-14T16:09:33.450Z,360
2023-02-14T16:11:34.790Z,360
2023-02-14T16:13:36.516Z,360
2023-02-14T16:17:40.077Z,360
2023-02-14T16:19:42.001Z,360
2023-02-14T16:21:43.796Z,360
2023-02-14T16:23:45.043Z,360
2023-02-14T16:25:46.689Z,360
2023-02-14T16:29:50.247Z,360
2023-02-14T16:32:15.483Z,360
2023-02-14T16:33:55.288Z,360
2023-02-14T16:35:55.337Z,360
2023-02-14T16:37:56.363Z,360
2023-02-14T16:39:57.413Z,360
2023-02-14T16:41:59.046Z,360
2023-02-14T16:44:00.832Z,360
2023-02-14T16:46:02.338Z,360
2023-02-14T16:48:04.206Z,360
2023-02-14T16:50:05.616Z,360
2023-02-14T16:52:07.259Z,360
2023-02-14T16:54:08.545Z,64
2023-02-14T16:56:09.585Z,360
2023-02-14T16:58:11.543Z,360
2023-02-14T17:02:14.356Z,360
2023-02-14T17:04:16.089Z,82
2023-02-14T17:06:17.843Z,82
2023-02-14T17:08:19.708Z,360
2023-02-14T17:12:22.081Z,360
2023-02-14T17:14:23.606Z,360
2023-02-14T17:16:24.691Z,360
2023-02-14T17:18:25.794Z,360
2023-02-14T17:22:28.810Z,360
2023-02-14T17:24:29.848Z,360
2023-02-14T17:26:31.509Z,360
2023-02-14T17:28:32.809Z,360
2023-02-14T17:32:35.979Z,360
2023-02-14T17:34:37.009Z,360
2023-02-14T17:36:38.837Z,360
2023-02-14T17:38:40.325Z,360
2023-02-14T17:40:41.339Z,360
2023-02-14T17:44:44.908Z,360
2023-02-14T17:46:46.012Z,360
2023-02-14T17:48:47.852Z,360
2023-02-14T17:50:57.341Z,360
2023-02-14T17:54:51.794Z,360
2023-02-14T17:56:53.597Z,360
2023-02-14T17:58:55.274Z,360
2023-02-14T18:00:57.015Z,360
2023-02-14T18:05:00.185Z,360
2023-02-14T18:07:01.864Z,360
2023-02-14T18:09:03.295Z,360
2023-02-14T18:11:04.460Z,360
2023-02-14T18:17:08.154Z,360
2023-02-14T18:19:09.694Z,360
2023-02-14T18:21:10.756Z,360
2023-02-14T18:23:12.360Z,360
2023-02-14T18:27:15.871Z,360
2023-02-14T18:29:17.753Z,360
2023-02-14T18:31:18.996Z,360
2023-02-14T18:33:20.357Z,360
2023-02-14T18:37:23.947Z,360
2023-02-14T18:39:25.456Z,360
2023-02-14T18:43:28.856Z,360
2023-02-14T18:47:32.290Z,360
2023-02-14T18:49:33.799Z,360
2023-02-14T18:51:35.751Z,360
2023-02-14T18:53:37.685Z,360
2023-02-14T18:57:40.893Z,360
2023-02-14T18:59:42.079Z,360
2023-02-14T19:03:44.781Z,360
2023-02-14T19:05:46.035Z,360
2023-02-14T19:07:47.543Z,360
2023-02-14T19:09:48.685Z,360
2023-02-14T19:15:53.472Z,360
2023-02-14T19:19:56.581Z,360
2023-02-14T19:21:57.619Z,360
2023-02-14T19:26:00.582Z,360
2023-02-14T19:30:03.703Z,360
2023-02-14T19:32:05.148Z,360
2023-02-14T19:36:08.658Z,360
2023-02-14T19:40:11.110Z,360
2023-02-14T19:42:12.212Z,360
2023-02-14T19:46:15.972Z,360
2023-02-14T19:48:16.914Z,360
2023-02-14T19:50:18.107Z,360
2023-02-14T19:52:26.209Z,360
2023-02-14T19:56:22.592Z,360
2023-02-14T19:58:24.366Z,360
2023-02-14T20:00:25.826Z,360
2023-02-14T20:02:27.351Z,360
2023-02-14T20:04:28.990Z,360
2023-02-14T20:08:31.388Z,360
2023-02-14T20:10:32.900Z,360
2023-02-14T20:12:34.485Z,360
2023-02-14T20:14:47.044Z,360
2023-02-14T20:18:38.895Z,360
2023-02-14T20:20:40.782Z,360
2023-02-14T20:22:42.425Z,360
2023-02-14T20:24:43.920Z,360
2023-02-14T20:26:45.814Z,360
2023-02-14T20:28:47.388Z,360
2023-02-14T20:30:49.460Z,360
2023-02-14T20:32:51.000Z,360
2023-02-14T20:34:52.547Z,360
2023-02-14T20:36:54.152Z,360
2023-02-14T20:38:55.466Z,360
2023-02-14T20:40:56.774Z,360
2023-02-14T20:42:58.445Z,360
2023-02-14T20:45:00.134Z,90
2023-02-14T20:47:01.203Z,90
2023-02-14T20:51:03.994Z,90
2023-02-14T20:53:05.253Z,90
2023-02-14T20:57:08.595Z,90
2023-02-14T21:01:11.623Z,90
2023-02-14T21:03:13.113Z,360
2023-02-14T21:05:14.690Z,90
2023-02-14T21:07:15.864Z,89
2023-02-14T21:09:17.281Z,90
2023-02-14T21:11:19.000Z,88
2023-02-14T21:13:20.372Z,360
2023-02-14T21:15:22.139Z,360
2023-02-14T21:17:23.863Z,360
2023-02-14T21:19:26.680Z,360
2023-02-14T21:21:26.513Z,360
2023-02-14T21:23:28.258Z,360
2023-02-14T21:25:29.982Z,360
2023-02-14T21:27:31.406Z,68
2023-02-14T21:29:32.769Z,68
2023-02-14T21:33:36.395Z,68
2023-02-14T21:35:37.796Z,68
2023-02-14T21:37:39.603Z,68
2023-02-14T21:39:41.242Z,68
2023-02-14T21:43:43.994Z,68
2023-02-14T21:45:45.595Z,122
2023-02-14T21:47:47.206Z,360
2023-02-14T21:49:48.714Z,360
2023-02-14T21:53:51.532Z,360
2023-02-14T21:55:52.597Z,360
2023-02-14T21:57:53.829Z,360
2023-02-14T21:59:55.383Z,360
2023-02-14T22:00:39.281Z,360
2023-02-14T22:02:40.425Z,99
2023-02-14T22:04:42.354Z,360
2023-02-14T22:06:43.427Z,360
2023-02-14T22:10:46.601Z,114
2023-02-14T22:12:47.945Z,114
2023-02-14T22:14:49.018Z,114
2023-02-14T22:16:50.974Z,114
2023-02-14T22:20:55.114Z,120
2023-02-14T22:22:56.139Z,120
2023-02-14T22:26:58.877Z,360
2023-02-14T22:31:02.412Z,360
2023-02-14T22:33:03.749Z,360
2023-02-14T22:37:06.969Z,360
2023-02-14T22:41:10.388Z,360
2023-02-14T22:43:11.778Z,360
2023-02-14T22:47:15.220Z,360
2023-02-14T22:49:16.994Z,360
2023-02-14T22:51:18.196Z,360
2023-02-14T22:53:20.086Z,360
2023-02-14T22:57:22.694Z,360
2023-02-14T22:59:23.924Z,360
2023-02-14T23:03:26.866Z,360
2023-02-14T23:05:28.151Z,360
2023-02-14T23:09:30.240Z,360
2023-02-14T23:13:32.963Z,360
2023-02-14T23:15:34.168Z,360
2023-02-14T23:19:36.588Z,83
2023-02-14T23:21:37.823Z,83
2023-02-14T23:23:39.770Z,360
2023-02-14T23:25:41.637Z,360
2023-02-14T23:27:43.482Z,85
2023-02-14T23:29:44.773Z,360
2023-02-14T23:31:46.409Z,360
2023-02-14T23:33:48.315Z,360
2023-02-14T23:35:49.951Z,360
2023-02-14T23:37:51.284Z,360
2023-02-14T23:39:52.853Z,360
2023-02-14T23:41:54.641Z,360
2023-02-14T23:43:56.322Z,102
2023-02-14T23:45:57.482Z,360
2023-02-14T23:47:58.921Z,360
2023-02-14T23:52:01.978Z,360
2023-02-14T23:54:03.597Z,360
2023-02-14T23:56:05.460Z,360
2023-02-14T23:58:07.156Z,360
